sensor_id;sensor_type;location;lat;lon;timestamp;P1;durP1;ratioP1;P2;durP2;ratioP2
74679;SDS011;63211;48.548;2.704;2023-01-09T00:00:55;0.30;;;0.10;;
74679;SDS011;63211;48.548;2.704;2023-01-09T00:03:23;0.22;;;0.00;;
74679;SDS011;63211;48.548;2.704;2023-01-09T00:05:50;0.50;;;0.05;;
74679;SDS011;63211;48.548;2.704;2023-01-09T00:08:17;0.10;;;0.00;;
74679;SDS011;63211;48.548;2.704;2023-01-09T00:10:43;0.43;;;0.10;;
74679;SDS011;63211;48.548;2.704;2023-01-09T00:13:10;0.05;;;0.05;;
74679;SDS011;63211;48.548;2.704;2023-01-09T00:15:37;0.30;;;0.08;;
74679;SDS011;63211;48.548;2.704;2023-01-09T00:18:04;0.45;;;0.05;;
74679;SDS011;63211;48.548;2.704;2023-01-09T00:20:32;0.57;;;0.00;;
74679;SDS011;63211;48.548;2.704;2023-01-09T00:22:59;0.10;;;0.00;;
74679;SDS011;63211;48.548;2.704;2023-01-09T00:25:25;0.20;;;0.10;;
74679;SDS011;63211;48.548;2.704;2023-01-09T00:27:52;0.40;;;0.10;;
74679;SDS011;63211;48.548;2.704;2023-01-09T00:30:19;0.22;;;0.10;;
74679;SDS011;63211;48.548;2.704;2023-01-09T00:32:45;0.85;;;0.00;;
74679;SDS011;63211;48.548;2.704;2023-01-09T00:35:13;1.58;;;0.10;;
74679;SDS011;63211;48.548;2.704;2023-01-09T00:37:43;0.40;;;0.05;;
74679;SDS011;63211;48.548;2.704;2023-01-09T00:40:10;1.00;;;0.17;;
74679;SDS011;63211;48.548;2.704;2023-01-09T00:42:39;1.75;;;0.10;;
74679;SDS011;63211;48.548;2.704;2023-01-09T00:45:09;0.13;;;0.00;;
74679;SDS011;63211;48.548;2.704;2023-01-09T00:47:40;0.30;;;0.08;;
74679;SDS011;63211;48.548;2.704;2023-01-09T00:50:11;0.10;;;0.10;;
74679;SDS011;63211;48.548;2.704;2023-01-09T00:52:40;1.92;;;0.28;;
74679;SDS011;63211;48.548;2.704;2023-01-09T00:55:10;0.30;;;0.00;;
74679;SDS011;63211;48.548;2.704;2023-01-09T00:57:37;0.60;;;0.03;;
74679;SDS011;63211;48.548;2.704;2023-01-09T01:00:05;0.00;;;0.00;;
74679;SDS011;63211;48.548;2.704;2023-01-09T01:02:33;0.10;;;0.00;;
74679;SDS011;63211;48.548;2.704;2023-01-09T01:05:00;0.30;;;0.00;;
74679;SDS011;63211;48.548;2.704;2023-01-09T01:07:44;0.38;;;0.10;;
74679;SDS011;63211;48.548;2.704;2023-01-09T01:10:13;1.20;;;0.05;;
74679;SDS011;63211;48.548;2.704;2023-01-09T01:12:44;4.57;;;0.28;;
74679;SDS011;63211;48.548;2.704;2023-01-09T01:15:12;1.75;;;0.10;;
74679;SDS011;63211;48.548;2.704;2023-01-09T01:17:39;0.80;;;0.10;;
74679;SDS011;63211;48.548;2.704;2023-01-09T01:20:08;0.73;;;0.10;;
74679;SDS011;63211;48.548;2.704;2023-01-09T01:22:37;0.25;;;0.03;;
74679;SDS011;63211;48.548;2.704;2023-01-09T01:25:06;0.22;;;0.00;;
74679;SDS011;63211;48.548;2.704;2023-01-09T01:27:35;0.20;;;0.10;;
74679;SDS011;63211;48.548;2.704;2023-01-09T01:30:02;0.10;;;0.00;;
74679;SDS011;63211;48.548;2.704;2023-01-09T01:32:29;0.63;;;0.10;;
74679;SDS011;63211;48.548;2.704;2023-01-09T01:34:55;0.47;;;0.03;;
74679;SDS011;63211;48.548;2.704;2023-01-09T01:37:22;0.20;;;0.05;;
74679;SDS011;63211;48.548;2.704;2023-01-09T01:39:50;0.15;;;0.00;;
74679;SDS011;63211;48.548;2.704;2023-01-09T01:42:17;2.72;;;0.38;;
74679;SDS011;63211;48.548;2.704;2023-01-09T01:44:58;0.40;;;0.05;;
74679;SDS011;63211;48.548;2.704;2023-01-09T01:47:37;0.98;;;0.10;;
74679;SDS011;63211;48.548;2.704;2023-01-09T01:50:09;0.38;;;0.10;;
74679;SDS011;63211;48.548;2.704;2023-01-09T01:52:42;0.15;;;0.10;;
74679;SDS011;63211;48.548;2.704;2023-01-09T01:55:13;0.55;;;0.15;;
74679;SDS011;63211;48.548;2.704;2023-01-09T01:57:44;0.50;;;0.10;;
74679;SDS011;63211;48.548;2.704;2023-01-09T02:00:16;2.90;;;0.20;;
74679;SDS011;63211;48.548;2.704;2023-01-09T02:02:47;0.30;;;0.10;;
74679;SDS011;63211;48.548;2.704;2023-01-09T02:05:14;3.97;;;0.20;;
74679;SDS011;63211;48.548;2.704;2023-01-09T02:07:41;0.65;;;0.10;;
74679;SDS011;63211;48.548;2.704;2023-01-09T02:10:08;0.15;;;0.05;;
74679;SDS011;63211;48.548;2.704;2023-01-09T02:12:35;1.77;;;0.15;;
74679;SDS011;63211;48.548;2.704;2023-01-09T02:15:03;1.40;;;0.20;;
74679;SDS011;63211;48.548;2.704;2023-01-09T02:17:45;0.08;;;0.00;;
74679;SDS011;63211;48.548;2.704;2023-01-09T02:26:33;1.15;;;0.10;;
74679;SDS011;63211;48.548;2.704;2023-01-09T02:29:39;0.68;;;0.08;;
74679;SDS011;63211;48.548;2.704;2023-01-09T02:32:18;0.15;;;0.00;;
74679;SDS011;63211;48.548;2.704;2023-01-09T02:34:58;0.80;;;0.00;;
74679;SDS011;63211;48.548;2.704;2023-01-09T02:37:34;0.68;;;0.13;;
74679;SDS011;63211;48.548;2.704;2023-01-09T02:40:11;0.47;;;0.08;;
74679;SDS011;63211;48.548;2.704;2023-01-09T02:42:44;0.80;;;0.20;;
74679;SDS011;63211;48.548;2.704;2023-01-09T02:45:12;0.40;;;0.05;;
74679;SDS011;63211;48.548;2.704;2023-01-09T02:47:41;1.45;;;0.32;;
74679;SDS011;63211;48.548;2.704;2023-01-09T02:50:10;0.65;;;0.10;;
74679;SDS011;63211;48.548;2.704;2023-01-09T02:55:40;0.90;;;0.10;;
74679;SDS011;63211;48.548;2.704;2023-01-09T02:58:20;0.47;;;0.10;;
74679;SDS011;63211;48.548;2.704;2023-01-09T03:01:06;0.77;;;0.10;;
74679;SDS011;63211;48.548;2.704;2023-01-09T03:03:45;0.17;;;0.00;;
74679;SDS011;63211;48.548;2.704;2023-01-09T03:06:17;0.45;;;0.10;;
74679;SDS011;63211;48.548;2.704;2023-01-09T03:08:50;0.57;;;0.30;;
74679;SDS011;63211;48.548;2.704;2023-01-09T03:11:19;1.05;;;0.20;;
74679;SDS011;63211;48.548;2.704;2023-01-09T03:13:48;0.65;;;0.10;;
74679;SDS011;63211;48.548;2.704;2023-01-09T03:16:18;0.80;;;0.15;;
74679;SDS011;63211;48.548;2.704;2023-01-09T03:18:49;1.00;;;0.17;;
74679;SDS011;63211;48.548;2.704;2023-01-09T03:21:18;0.98;;;0.00;;
74679;SDS011;63211;48.548;2.704;2023-01-09T03:23:47;1.38;;;0.20;;
74679;SDS011;63211;48.548;2.704;2023-01-09T03:26:15;0.95;;;0.10;;
74679;SDS011;63211;48.548;2.704;2023-01-09T03:28:42;0.85;;;0.20;;
74679;SDS011;63211;48.548;2.704;2023-01-09T03:31:09;0.90;;;0.13;;
74679;SDS011;63211;48.548;2.704;2023-01-09T03:33:36;0.60;;;0.17;;
74679;SDS011;63211;48.548;2.704;2023-01-09T03:36:05;1.27;;;0.10;;
74679;SDS011;63211;48.548;2.704;2023-01-09T03:38:32;0.38;;;0.00;;
74679;SDS011;63211;48.548;2.704;2023-01-09T03:40:59;1.08;;;0.10;;
74679;SDS011;63211;48.548;2.704;2023-01-09T03:43:26;1.83;;;0.20;;
74679;SDS011;63211;48.548;2.704;2023-01-09T03:45:52;1.13;;;0.10;;
74679;SDS011;63211;48.548;2.704;2023-01-09T03:48:19;0.57;;;0.30;;
74679;SDS011;63211;48.548;2.704;2023-01-09T03:50:46;1.23;;;0.13;;
74679;SDS011;63211;48.548;2.704;2023-01-09T03:53:15;0.85;;;0.10;;
74679;SDS011;63211;48.548;2.704;2023-01-09T03:55:42;0.80;;;0.30;;
74679;SDS011;63211;48.548;2.704;2023-01-09T03:58:10;0.10;;;0.10;;
74679;SDS011;63211;48.548;2.704;2023-01-09T04:00:37;0.20;;;0.00;;
74679;SDS011;63211;48.548;2.704;2023-01-09T04:03:04;1.17;;;0.20;;
74679;SDS011;63211;48.548;2.704;2023-01-09T04:05:31;0.82;;;0.22;;
74679;SDS011;63211;48.548;2.704;2023-01-09T04:07:57;0.47;;;0.25;;
74679;SDS011;63211;48.548;2.704;2023-01-09T04:10:25;1.33;;;0.30;;
74679;SDS011;63211;48.548;2.704;2023-01-09T04:12:52;0.25;;;0.15;;
74679;SDS011;63211;48.548;2.704;2023-01-09T04:15:19;0.20;;;0.00;;
74679;SDS011;63211;48.548;2.704;2023-01-09T04:17:46;0.55;;;0.20;;
74679;SDS011;63211;48.548;2.704;2023-01-09T04:20:12;1.13;;;0.20;;
74679;SDS011;63211;48.548;2.704;2023-01-09T04:22:39;2.72;;;0.28;;
74679;SDS011;63211;48.548;2.704;2023-01-09T04:25:06;1.80;;;0.10;;
74679;SDS011;63211;48.548;2.704;2023-01-09T04:27:34;0.85;;;0.20;;
74679;SDS011;63211;48.548;2.704;2023-01-09T04:30:01;0.52;;;0.25;;
74679;SDS011;63211;48.548;2.704;2023-01-09T04:32:28;0.68;;;0.03;;
74679;SDS011;63211;48.548;2.704;2023-01-09T04:34:55;0.17;;;0.05;;
74679;SDS011;63211;48.548;2.704;2023-01-09T04:37:22;1.27;;;0.17;;
74679;SDS011;63211;48.548;2.704;2023-01-09T04:39:49;0.60;;;0.00;;
74679;SDS011;63211;48.548;2.704;2023-01-09T04:42:18;0.17;;;0.00;;
74679;SDS011;63211;48.548;2.704;2023-01-09T04:44:46;0.63;;;0.10;;
74679;SDS011;63211;48.548;2.704;2023-01-09T04:47:17;1.45;;;0.30;;
74679;SDS011;63211;48.548;2.704;2023-01-09T04:49:44;1.13;;;0.00;;
74679;SDS011;63211;48.548;2.704;2023-01-09T04:52:11;0.20;;;0.00;;
74679;SDS011;63211;48.548;2.704;2023-01-09T04:54:37;1.13;;;0.20;;
74679;SDS011;63211;48.548;2.704;2023-01-09T04:57:04;0.50;;;0.20;;
74679;SDS011;63211;48.548;2.704;2023-01-09T04:59:31;0.38;;;0.03;;
74679;SDS011;63211;48.548;2.704;2023-01-09T05:01:59;0.68;;;0.05;;
74679;SDS011;63211;48.548;2.704;2023-01-09T05:04:25;0.82;;;0.20;;
74679;SDS011;63211;48.548;2.704;2023-01-09T05:06:52;1.20;;;0.30;;
74679;SDS011;63211;48.548;2.704;2023-01-09T05:09:19;0.43;;;0.00;;
74679;SDS011;63211;48.548;2.704;2023-01-09T05:11:46;0.40;;;0.10;;
74679;SDS011;63211;48.548;2.704;2023-01-09T05:14:14;1.27;;;0.22;;
74679;SDS011;63211;48.548;2.704;2023-01-09T05:16:40;0.75;;;0.10;;
74679;SDS011;63211;48.548;2.704;2023-01-09T05:19:08;1.48;;;0.10;;
74679;SDS011;63211;48.548;2.704;2023-01-09T05:21:35;0.85;;;0.10;;
74679;SDS011;63211;48.548;2.704;2023-01-09T05:24:02;0.30;;;0.10;;
74679;SDS011;63211;48.548;2.704;2023-01-09T05:26:28;0.47;;;0.10;;
74679;SDS011;63211;48.548;2.704;2023-01-09T05:28:55;2.40;;;0.30;;
74679;SDS011;63211;48.548;2.704;2023-01-09T05:31:23;0.80;;;0.10;;
74679;SDS011;63211;48.548;2.704;2023-01-09T05:33:50;0.55;;;0.08;;
74679;SDS011;63211;48.548;2.704;2023-01-09T05:36:18;0.35;;;0.03;;
74679;SDS011;63211;48.548;2.704;2023-01-09T05:38:45;1.38;;;0.20;;
74679;SDS011;63211;48.548;2.704;2023-01-09T05:41:12;1.15;;;0.20;;
74679;SDS011;63211;48.548;2.704;2023-01-09T05:43:38;0.38;;;0.10;;
74679;SDS011;63211;48.548;2.704;2023-01-09T05:46:05;0.25;;;0.00;;
74679;SDS011;63211;48.548;2.704;2023-01-09T05:48:32;6.07;;;0.10;;
74679;SDS011;63211;48.548;2.704;2023-01-09T05:50:58;0.90;;;0.20;;
74679;SDS011;63211;48.548;2.704;2023-01-09T05:53:26;0.60;;;0.20;;
74679;SDS011;63211;48.548;2.704;2023-01-09T05:55:53;2.30;;;0.20;;
74679;SDS011;63211;48.548;2.704;2023-01-09T05:58:19;1.33;;;0.08;;
74679;SDS011;63211;48.548;2.704;2023-01-09T06:00:46;0.73;;;0.08;;
74679;SDS011;63211;48.548;2.704;2023-01-09T06:03:13;0.10;;;0.10;;
74679;SDS011;63211;48.548;2.704;2023-01-09T06:05:40;0.25;;;0.00;;
74679;SDS011;63211;48.548;2.704;2023-01-09T06:08:06;0.68;;;0.10;;
74679;SDS011;63211;48.548;2.704;2023-01-09T06:10:34;0.73;;;0.05;;
74679;SDS011;63211;48.548;2.704;2023-01-09T06:13:01;1.02;;;0.00;;
74679;SDS011;63211;48.548;2.704;2023-01-09T06:15:28;2.45;;;0.10;;
74679;SDS011;63211;48.548;2.704;2023-01-09T06:17:54;0.43;;;0.05;;
74679;SDS011;63211;48.548;2.704;2023-01-09T06:20:21;1.88;;;0.10;;
74679;SDS011;63211;48.548;2.704;2023-01-09T06:22:47;0.22;;;0.10;;
74679;SDS011;63211;48.548;2.704;2023-01-09T06:25:16;0.75;;;0.20;;
74679;SDS011;63211;48.548;2.704;2023-01-09T06:27:44;0.70;;;0.20;;
74679;SDS011;63211;48.548;2.704;2023-01-09T06:30:11;0.98;;;0.15;;
74679;SDS011;63211;48.548;2.704;2023-01-09T06:32:38;0.32;;;0.10;;
74679;SDS011;63211;48.548;2.704;2023-01-09T06:35:05;0.38;;;0.00;;
74679;SDS011;63211;48.548;2.704;2023-01-09T06:37:32;1.25;;;0.10;;
74679;SDS011;63211;48.548;2.704;2023-01-09T06:39:58;1.38;;;0.00;;
74679;SDS011;63211;48.548;2.704;2023-01-09T06:42:25;0.55;;;0.00;;
74679;SDS011;63211;48.548;2.704;2023-01-09T06:44:53;1.40;;;0.10;;
74679;SDS011;63211;48.548;2.704;2023-01-09T06:47:19;0.90;;;0.17;;
74679;SDS011;63211;48.548;2.704;2023-01-09T06:49:46;0.28;;;0.05;;
74679;SDS011;63211;48.548;2.704;2023-01-09T06:52:13;0.20;;;0.03;;
74679;SDS011;63211;48.548;2.704;2023-01-09T06:54:39;0.40;;;0.05;;
74679;SDS011;63211;48.548;2.704;2023-01-09T06:57:06;1.75;;;0.25;;
74679;SDS011;63211;48.548;2.704;2023-01-09T06:59:32;0.90;;;0.10;;
74679;SDS011;63211;48.548;2.704;2023-01-09T07:02:00;5.93;;;0.70;;
74679;SDS011;63211;48.548;2.704;2023-01-09T07:04:27;53.53;;;12.52;;
74679;SDS011;63211;48.548;2.704;2023-01-09T07:06:54;139.82;;;25.10;;
74679;SDS011;63211;48.548;2.704;2023-01-09T07:09:20;46.67;;;10.23;;
74679;SDS011;63211;48.548;2.704;2023-01-09T07:11:47;61.78;;;11.93;;
74679;SDS011;63211;48.548;2.704;2023-01-09T07:14:14;37.50;;;8.00;;
74679;SDS011;63211;48.548;2.704;2023-01-09T07:16:40;38.00;;;8.13;;
74679;SDS011;63211;48.548;2.704;2023-01-09T07:19:08;78.88;;;16.25;;
74679;SDS011;63211;48.548;2.704;2023-01-09T07:21:35;74.88;;;14.43;;
74679;SDS011;63211;48.548;2.704;2023-01-09T07:24:01;71.32;;;14.27;;
74679;SDS011;63211;48.548;2.704;2023-01-09T07:26:28;21.30;;;5.53;;
74679;SDS011;63211;48.548;2.704;2023-01-09T07:28:55;23.83;;;5.85;;
74679;SDS011;63211;48.548;2.704;2023-01-09T07:31:21;47.42;;;8.48;;
74679;SDS011;63211;48.548;2.704;2023-01-09T07:33:48;37.30;;;8.45;;
74679;SDS011;63211;48.548;2.704;2023-01-09T07:36:16;38.38;;;8.68;;
74679;SDS011;63211;48.548;2.704;2023-01-09T07:38:43;35.33;;;8.10;;
74679;SDS011;63211;48.548;2.704;2023-01-09T07:41:09;33.83;;;7.72;;
74679;SDS011;63211;48.548;2.704;2023-01-09T07:43:36;34.42;;;7.50;;
74679;SDS011;63211;48.548;2.704;2023-01-09T07:46:04;36.17;;;8.48;;
74679;SDS011;63211;48.548;2.704;2023-01-09T07:48:31;22.65;;;6.45;;
74679;SDS011;63211;48.548;2.704;2023-01-09T07:50:58;32.78;;;7.05;;
74679;SDS011;63211;48.548;2.704;2023-01-09T07:53:26;24.90;;;6.32;;
74679;SDS011;63211;48.548;2.704;2023-01-09T07:55:53;25.77;;;6.38;;
74679;SDS011;63211;48.548;2.704;2023-01-09T07:58:19;21.58;;;5.32;;
74679;SDS011;63211;48.548;2.704;2023-01-09T08:00:46;19.85;;;5.10;;
74679;SDS011;63211;48.548;2.704;2023-01-09T08:03:12;27.02;;;5.45;;
74679;SDS011;63211;48.548;2.704;2023-01-09T08:05:39;25.75;;;5.97;;
74679;SDS011;63211;48.548;2.704;2023-01-09T08:08:06;15.48;;;4.80;;
74679;SDS011;63211;48.548;2.704;2023-01-09T08:10:34;21.27;;;5.07;;
74679;SDS011;63211;48.548;2.704;2023-01-09T08:13:00;19.75;;;4.30;;
74679;SDS011;63211;48.548;2.704;2023-01-09T08:15:27;17.55;;;4.65;;
74679;SDS011;63211;48.548;2.704;2023-01-09T08:17:54;21.88;;;4.15;;
74679;SDS011;63211;48.548;2.704;2023-01-09T08:20:21;17.50;;;4.32;;
74679;SDS011;63211;48.548;2.704;2023-01-09T08:22:48;14.45;;;4.30;;
74679;SDS011;63211;48.548;2.704;2023-01-09T08:25:14;12.30;;;4.07;;
74679;SDS011;63211;48.548;2.704;2023-01-09T08:27:43;15.20;;;4.10;;
74679;SDS011;63211;48.548;2.704;2023-01-09T08:30:10;15.20;;;4.47;;
74679;SDS011;63211;48.548;2.704;2023-01-09T08:32:37;11.93;;;3.17;;
74679;SDS011;63211;48.548;2.704;2023-01-09T08:35:05;17.60;;;3.60;;
74679;SDS011;63211;48.548;2.704;2023-01-09T08:37:32;9.70;;;3.17;;
74679;SDS011;63211;48.548;2.704;2023-01-09T08:39:59;10.10;;;2.92;;
74679;SDS011;63211;48.548;2.704;2023-01-09T08:42:26;10.80;;;2.42;;
74679;SDS011;63211;48.548;2.704;2023-01-09T08:45:26;13.20;;;2.72;;
74679;SDS011;63211;48.548;2.704;2023-01-09T08:48:10;12.32;;;2.78;;
74679;SDS011;63211;48.548;2.704;2023-01-09T08:50:37;16.80;;;2.60;;
74679;SDS011;63211;48.548;2.704;2023-01-09T08:53:03;9.65;;;2.35;;
74679;SDS011;63211;48.548;2.704;2023-01-09T08:55:30;12.45;;;2.65;;
74679;SDS011;63211;48.548;2.704;2023-01-09T08:57:57;13.60;;;2.47;;
74679;SDS011;63211;48.548;2.704;2023-01-09T09:00:23;9.27;;;1.95;;
74679;SDS011;63211;48.548;2.704;2023-01-09T09:02:52;10.57;;;2.13;;
74679;SDS011;63211;48.548;2.704;2023-01-09T09:05:20;17.00;;;1.98;;
74679;SDS011;63211;48.548;2.704;2023-01-09T09:07:48;9.07;;;1.75;;
74679;SDS011;63211;48.548;2.704;2023-01-09T09:10:15;12.10;;;2.50;;
74679;SDS011;63211;48.548;2.704;2023-01-09T09:12:42;6.60;;;1.50;;
74679;SDS011;63211;48.548;2.704;2023-01-09T09:15:09;9.63;;;1.95;;
74679;SDS011;63211;48.548;2.704;2023-01-09T09:17:42;6.32;;;1.92;;
74679;SDS011;63211;48.548;2.704;2023-01-09T09:20:10;5.68;;;1.20;;
74679;SDS011;63211;48.548;2.704;2023-01-09T09:22:37;5.18;;;1.52;;
74679;SDS011;63211;48.548;2.704;2023-01-09T09:25:04;9.18;;;1.70;;
74679;SDS011;63211;48.548;2.704;2023-01-09T09:27:31;6.72;;;1.60;;
74679;SDS011;63211;48.548;2.704;2023-01-09T09:29:57;4.07;;;1.13;;
74679;SDS011;63211;48.548;2.704;2023-01-09T09:32:24;3.67;;;1.05;;
74679;SDS011;63211;48.548;2.704;2023-01-09T09:34:52;5.85;;;1.40;;
74679;SDS011;63211;48.548;2.704;2023-01-09T09:37:19;6.00;;;1.40;;
74679;SDS011;63211;48.548;2.704;2023-01-09T09:39:45;5.15;;;1.40;;
74679;SDS011;63211;48.548;2.704;2023-01-09T09:42:19;4.78;;;0.88;;
74679;SDS011;63211;48.548;2.704;2023-01-09T09:45:17;3.78;;;1.05;;
74679;SDS011;63211;48.548;2.704;2023-01-09T09:47:55;5.20;;;1.55;;
74679;SDS011;63211;48.548;2.704;2023-01-09T09:53:28;2.80;;;0.80;;
74679;SDS011;63211;48.548;2.704;2023-01-09T09:56:01;3.75;;;0.70;;
74679;SDS011;63211;48.548;2.704;2023-01-09T09:58:30;4.25;;;0.80;;
74679;SDS011;63211;48.548;2.704;2023-01-09T10:01:02;4.90;;;1.00;;
74679;SDS011;63211;48.548;2.704;2023-01-09T10:03:30;4.88;;;0.80;;
74679;SDS011;63211;48.548;2.704;2023-01-09T10:06:04;3.53;;;0.57;;
74679;SDS011;63211;48.548;2.704;2023-01-09T10:08:36;2.72;;;0.50;;
74679;SDS011;63211;48.548;2.704;2023-01-09T10:11:12;1.63;;;0.65;;
74679;SDS011;63211;48.548;2.704;2023-01-09T10:13:42;2.83;;;0.88;;
74679;SDS011;63211;48.548;2.704;2023-01-09T10:16:29;2.67;;;0.40;;
74679;SDS011;63211;48.548;2.704;2023-01-09T10:19:06;3.15;;;0.43;;
74679;SDS011;63211;48.548;2.704;2023-01-09T10:21:46;1.63;;;0.30;;
74679;SDS011;63211;48.548;2.704;2023-01-09T10:24:31;2.17;;;0.38;;
74679;SDS011;63211;48.548;2.704;2023-01-09T10:27:11;4.18;;;0.60;;
74679;SDS011;63211;48.548;2.704;2023-01-09T10:29:54;1.88;;;0.50;;
74679;SDS011;63211;48.548;2.704;2023-01-09T10:32:38;4.35;;;0.70;;
74679;SDS011;63211;48.548;2.704;2023-01-09T10:35:21;1.35;;;0.45;;
74679;SDS011;63211;48.548;2.704;2023-01-09T10:38:00;1.77;;;0.30;;
74679;SDS011;63211;48.548;2.704;2023-01-09T10:40:31;1.90;;;0.65;;
74679;SDS011;63211;48.548;2.704;2023-01-09T10:43:03;2.33;;;0.30;;
74679;SDS011;63211;48.548;2.704;2023-01-09T10:45:35;2.50;;;0.45;;
74679;SDS011;63211;48.548;2.704;2023-01-09T10:48:10;2.03;;;0.40;;
74679;SDS011;63211;48.548;2.704;2023-01-09T10:50:44;2.25;;;0.30;;
74679;SDS011;63211;48.548;2.704;2023-01-09T10:53:17;5.13;;;0.40;;
74679;SDS011;63211;48.548;2.704;2023-01-09T10:58:13;3.13;;;0.40;;
74679;SDS011;63211;48.548;2.704;2023-01-09T11:00:41;2.65;;;0.50;;
74679;SDS011;63211;48.548;2.704;2023-01-09T11:03:09;1.42;;;0.30;;
74679;SDS011;63211;48.548;2.704;2023-01-09T11:05:38;1.95;;;0.32;;
74679;SDS011;63211;48.548;2.704;2023-01-09T11:08:05;1.42;;;0.60;;
74679;SDS011;63211;48.548;2.704;2023-01-09T11:10:47;2.50;;;0.50;;
74679;SDS011;63211;48.548;2.704;2023-01-09T11:13:17;1.00;;;0.28;;
74679;SDS011;63211;48.548;2.704;2023-01-09T11:15:45;2.40;;;0.40;;
74679;SDS011;63211;48.548;2.704;2023-01-09T11:18:26;1.58;;;0.38;;
74679;SDS011;63211;48.548;2.704;2023-01-09T11:20:53;2.22;;;0.40;;
74679;SDS011;63211;48.548;2.704;2023-01-09T11:23:27;1.35;;;0.25;;
74679;SDS011;63211;48.548;2.704;2023-01-09T11:25:57;2.83;;;0.40;;
74679;SDS011;63211;48.548;2.704;2023-01-09T11:28:25;1.65;;;0.40;;
74679;SDS011;63211;48.548;2.704;2023-01-09T11:30:53;1.73;;;0.50;;
74679;SDS011;63211;48.548;2.704;2023-01-09T11:33:24;3.03;;;0.60;;
74679;SDS011;63211;48.548;2.704;2023-01-09T11:35:54;1.85;;;0.35;;
74679;SDS011;63211;48.548;2.704;2023-01-09T11:38:26;2.33;;;0.50;;
74679;SDS011;63211;48.548;2.704;2023-01-09T11:40:56;1.50;;;0.22;;
74679;SDS011;63211;48.548;2.704;2023-01-09T11:43:26;1.60;;;0.25;;
74679;SDS011;63211;48.548;2.704;2023-01-09T11:45:57;1.30;;;0.60;;
74679;SDS011;63211;48.548;2.704;2023-01-09T11:48:28;2.20;;;0.20;;
74679;SDS011;63211;48.548;2.704;2023-01-09T11:51:00;1.10;;;0.22;;
74679;SDS011;63211;48.548;2.704;2023-01-09T11:53:31;2.47;;;0.65;;
74679;SDS011;63211;48.548;2.704;2023-01-09T11:56:14;0.43;;;0.20;;
74679;SDS011;63211;48.548;2.704;2023-01-09T11:58:42;1.27;;;0.30;;
74679;SDS011;63211;48.548;2.704;2023-01-09T12:01:13;0.60;;;0.28;;
74679;SDS011;63211;48.548;2.704;2023-01-09T12:03:59;1.70;;;0.25;;
74679;SDS011;63211;48.548;2.704;2023-01-09T12:06:38;1.92;;;0.25;;
74679;SDS011;63211;48.548;2.704;2023-01-09T12:09:15;0.50;;;0.10;;
74679;SDS011;63211;48.548;2.704;2023-01-09T12:11:47;1.77;;;0.20;;
74679;SDS011;63211;48.548;2.704;2023-01-09T12:14:28;0.93;;;0.20;;
74679;SDS011;63211;48.548;2.704;2023-01-09T12:17:11;0.45;;;0.10;;
74679;SDS011;63211;48.548;2.704;2023-01-09T12:20:09;0.63;;;0.20;;
74679;SDS011;63211;48.548;2.704;2023-01-09T12:22:47;1.38;;;0.20;;
74679;SDS011;63211;48.548;2.704;2023-01-09T12:25:28;0.45;;;0.10;;
74679;SDS011;63211;48.548;2.704;2023-01-09T12:28:19;0.40;;;0.15;;
74679;SDS011;63211;48.548;2.704;2023-01-09T12:31:02;0.55;;;0.10;;
74679;SDS011;63211;48.548;2.704;2023-01-09T12:33:41;1.25;;;0.38;;
74679;SDS011;63211;48.548;2.704;2023-01-09T12:36:21;1.23;;;0.28;;
74679;SDS011;63211;48.548;2.704;2023-01-09T12:38:56;0.80;;;0.30;;
74679;SDS011;63211;48.548;2.704;2023-01-09T12:41:40;0.98;;;0.20;;
74679;SDS011;63211;48.548;2.704;2023-01-09T12:44:21;0.60;;;0.13;;
74679;SDS011;63211;48.548;2.704;2023-01-09T12:47:02;0.93;;;0.20;;
74679;SDS011;63211;48.548;2.704;2023-01-09T12:49:40;0.77;;;0.25;;
74679;SDS011;63211;48.548;2.704;2023-01-09T12:52:13;1.33;;;0.28;;
74679;SDS011;63211;48.548;2.704;2023-01-09T12:54:45;0.95;;;0.13;;
74679;SDS011;63211;48.548;2.704;2023-01-09T12:57:18;1.00;;;0.20;;
74679;SDS011;63211;48.548;2.704;2023-01-09T12:59:53;0.35;;;0.08;;
74679;SDS011;63211;48.548;2.704;2023-01-09T13:02:23;0.40;;;0.10;;
74679;SDS011;63211;48.548;2.704;2023-01-09T13:04:57;0.73;;;0.20;;
74679;SDS011;63211;48.548;2.704;2023-01-09T13:07:29;0.40;;;0.03;;
74679;SDS011;63211;48.548;2.704;2023-01-09T13:10:01;2.00;;;0.20;;
74679;SDS011;63211;48.548;2.704;2023-01-09T13:12:34;1.13;;;0.22;;
74679;SDS011;63211;48.548;2.704;2023-01-09T13:15:13;1.85;;;0.28;;
74679;SDS011;63211;48.548;2.704;2023-01-09T13:17:50;1.35;;;0.30;;
74679;SDS011;63211;48.548;2.704;2023-01-09T13:20:20;1.48;;;0.10;;
74679;SDS011;63211;48.548;2.704;2023-01-09T13:22:51;0.40;;;0.10;;
74679;SDS011;63211;48.548;2.704;2023-01-09T13:28:10;1.25;;;0.10;;
74679;SDS011;63211;48.548;2.704;2023-01-09T13:30:56;0.43;;;0.10;;
74679;SDS011;63211;48.548;2.704;2023-01-09T13:33:37;1.25;;;0.30;;
74679;SDS011;63211;48.548;2.704;2023-01-09T13:36:08;0.68;;;0.20;;
74679;SDS011;63211;48.548;2.704;2023-01-09T13:38:47;0.35;;;0.10;;
74679;SDS011;63211;48.548;2.704;2023-01-09T13:41:15;0.98;;;0.40;;
74679;SDS011;63211;48.548;2.704;2023-01-09T13:44:01;0.22;;;0.00;;
74679;SDS011;63211;48.548;2.704;2023-01-09T13:46:35;0.55;;;0.10;;
74679;SDS011;63211;48.548;2.704;2023-01-09T13:49:05;2.13;;;0.20;;
74679;SDS011;63211;48.548;2.704;2023-01-09T13:51:35;0.65;;;0.10;;
74679;SDS011;63211;48.548;2.704;2023-01-09T13:57:26;0.65;;;0.10;;
74679;SDS011;63211;48.548;2.704;2023-01-09T13:59:57;0.95;;;0.13;;
74679;SDS011;63211;48.548;2.704;2023-01-09T14:08:28;0.98;;;0.30;;
74679;SDS011;63211;48.548;2.704;2023-01-09T14:10:57;0.68;;;0.28;;
74679;SDS011;63211;48.548;2.704;2023-01-09T14:13:26;0.88;;;0.13;;
74679;SDS011;63211;48.548;2.704;2023-01-09T14:16:00;0.38;;;0.10;;
74679;SDS011;63211;48.548;2.704;2023-01-09T14:18:31;1.38;;;0.10;;
74679;SDS011;63211;48.548;2.704;2023-01-09T14:21:00;0.28;;;0.00;;
74679;SDS011;63211;48.548;2.704;2023-01-09T14:23:30;0.10;;;0.10;;
74679;SDS011;63211;48.548;2.704;2023-01-09T14:26:01;0.35;;;0.10;;
74679;SDS011;63211;48.548;2.704;2023-01-09T14:28:28;0.65;;;0.00;;
74679;SDS011;63211;48.548;2.704;2023-01-09T14:31:06;0.88;;;0.20;;
74679;SDS011;63211;48.548;2.704;2023-01-09T14:33:52;0.50;;;0.00;;
74679;SDS011;63211;48.548;2.704;2023-01-09T14:36:50;0.40;;;0.10;;
74679;SDS011;63211;48.548;2.704;2023-01-09T14:39:19;0.10;;;0.05;;
74679;SDS011;63211;48.548;2.704;2023-01-09T14:41:49;0.60;;;0.28;;
74679;SDS011;63211;48.548;2.704;2023-01-09T14:44:30;0.35;;;0.03;;
74679;SDS011;63211;48.548;2.704;2023-01-09T14:49:38;0.35;;;0.15;;
74679;SDS011;63211;48.548;2.704;2023-01-09T14:52:12;0.93;;;0.20;;
74679;SDS011;63211;48.548;2.704;2023-01-09T14:54:46;0.35;;;0.00;;
74679;SDS011;63211;48.548;2.704;2023-01-09T14:57:21;0.28;;;0.03;;
74679;SDS011;63211;48.548;2.704;2023-01-09T14:59:56;1.55;;;0.17;;
74679;SDS011;63211;48.548;2.704;2023-01-09T15:02:24;0.95;;;0.10;;
74679;SDS011;63211;48.548;2.704;2023-01-09T15:04:55;0.55;;;0.20;;
74679;SDS011;63211;48.548;2.704;2023-01-09T15:07:25;0.22;;;0.10;;
74679;SDS011;63211;48.548;2.704;2023-01-09T15:09:58;0.50;;;0.20;;
74679;SDS011;63211;48.548;2.704;2023-01-09T15:12:28;0.40;;;0.20;;
74679;SDS011;63211;48.548;2.704;2023-01-09T15:14:57;0.75;;;0.10;;
74679;SDS011;63211;48.548;2.704;2023-01-09T15:17:27;5.72;;;0.45;;
74679;SDS011;63211;48.548;2.704;2023-01-09T15:19:57;2.10;;;0.10;;
74679;SDS011;63211;48.548;2.704;2023-01-09T15:22:27;0.68;;;0.00;;
74679;SDS011;63211;48.548;2.704;2023-01-09T15:24:55;0.52;;;0.03;;
74679;SDS011;63211;48.548;2.704;2023-01-09T15:27:22;0.68;;;0.10;;
74679;SDS011;63211;48.548;2.704;2023-01-09T15:29:49;0.70;;;0.10;;
74679;SDS011;63211;48.548;2.704;2023-01-09T15:32:17;0.65;;;0.00;;
74679;SDS011;63211;48.548;2.704;2023-01-09T15:34:49;2.35;;;0.32;;